Time,TemperatureF,DewpointF,PressureIn,WindDirection,WindDirectionDegrees,WindSpeedMPH,WindSpeedGustMPH,Humidity,HourlyPrecipIn,Conditions,Clouds,dailyrainin,SoftwareType,DateUTC
2013-05-11 00:02:00,69.0,60.0,29.99,North,355,5.0,8.0,72,0.00,,,0.01,,2013-05-11 05:02:00,
2013-05-11 00:12:00,69.0,60.0,29.99,North,355,5.0,8.0,72,0.00,,,0.01,,2013-05-11 05:12:00,
2013-05-11 00:21:00,69.0,60.0,29.99,North,10,5.0,8.0,73,0.00,,,0.01,,2013-05-11 05:21:00,
2013-05-11 00:32:00,69.0,60.0,29.99,NNW,342,3.0,7.0,73,0.00,,,0.01,,2013-05-11 05:32:00,
2013-05-11 00:42:00,68.0,59.0,29.99,NNW,346,3.0,6.0,74,0.00,,,0.01,,2013-05-11 05:42:00,
2013-05-11 00:52:00,68.0,59.0,29.99,NNW,346,3.0,6.0,74,0.00,,,0.01,,2013-05-11 05:52:00,
2013-05-11 01:02:00,68.0,59.0,29.99,NNW,346,3.0,6.0,74,0.00,,,0.01,,2013-05-11 06:02:00,
2013-05-11 01:12:00,68.0,59.0,29.99,NNW,346,3.0,6.0,74,0.00,,,0.01,,2013-05-11 06:12:00,
2013-05-11 01:21:00,68.0,59.0,29.99,NNW,346,3.0,6.0,74,0.00,,,0.01,,2013-05-11 06:21:00,
2013-05-11 01:32:00,67.0,59.0,29.97,North,350,5.0,7.0,75,0.00,,,0.01,,2013-05-11 06:32:00,
2013-05-11 01:42:00,67.0,59.0,29.96,NNW,339,4.0,8.0,75,0.00,,,0.01,,2013-05-11 06:42:00,
2013-05-11 01:52:00,67.0,59.0,29.96,NNW,339,4.0,8.0,75,0.00,,,0.01,,2013-05-11 06:52:00,
2013-05-11 02:02:00,66.0,58.0,29.97,NNW,335,3.0,7.0,75,0.00,,,0.01,,2013-05-11 07:02:00,
2013-05-11 02:11:00,66.0,58.0,29.97,NNW,335,3.0,7.0,75,0.00,,,0.01,,2013-05-11 07:11:00,
2013-05-11 02:21:00,66.0,58.0,29.97,NNW,335,3.0,7.0,75,0.00,,,0.01,,2013-05-11 07:21:00,
2013-05-11 02:32:00,66.0,58.0,29.98,NNW,333,4.0,9.0,76,0.00,,,0.01,,2013-05-11 07:32:00,
2013-05-11 02:42:00,66.0,58.0,29.98,NNW,333,4.0,9.0,76,0.00,,,0.01,,2013-05-11 07:42:00,
2013-05-11 02:52:00,66.0,58.0,29.98,NNW,333,4.0,9.0,76,0.00,,,0.01,,2013-05-11 07:52:00,
2013-05-11 03:01:00,66.0,58.0,29.98,North,355,4.0,8.0,76,0.00,,,0.01,,2013-05-11 08:01:00,
2013-05-11 03:12:00,66.0,58.0,29.98,North,355,4.0,8.0,76,0.00,,,0.01,,2013-05-11 08:12:00,
2013-05-11 03:21:00,66.0,59.0,29.99,NNW,341,3.0,7.0,77,0.00,,,0.01,,2013-05-11 08:21:00,
2013-05-11 03:32:00,66.0,59.0,30.01,NNW,342,4.0,12.0,77,0.00,,,0.01,,2013-05-11 08:32:00,
2013-05-11 03:42:00,66.0,59.0,30.01,NNW,342,4.0,12.0,77,0.00,,,0.01,,2013-05-11 08:42:00,
2013-05-11 03:52:00,66.0,59.0,30.01,NNW,342,4.0,12.0,77,0.00,,,0.01,,2013-05-11 08:52:00,
2013-05-11 04:01:00,66.0,59.0,30.01,NNW,342,4.0,12.0,77,0.00,,,0.01,,2013-05-11 09:01:00,
2013-05-11 04:11:00,66.0,59.0,30.01,NNW,342,4.0,12.0,77,0.00,,,0.01,,2013-05-11 09:11:00,
2013-05-11 04:33:00,64.0,57.0,30.01,North,8,5.0,9.0,79,0.00,,,0.01,,2013-05-11 09:33:00,
2013-05-11 04:42:00,64.0,57.0,30.01,North,8,5.0,9.0,79,0.00,,,0.01,,2013-05-11 09:42:00,
2013-05-11 04:52:00,64.0,57.0,30.01,North,8,5.0,9.0,79,0.00,,,0.01,,2013-05-11 09:52:00,
2013-05-11 05:03:00,63.0,57.0,30.01,NNE,20,3.0,7.0,80,0.00,,,0.01,,2013-05-11 10:03:00,
2013-05-11 05:12:00,63.0,57.0,30.01,NNE,20,3.0,7.0,80,0.00,,,0.01,,2013-05-11 10:12:00,
2013-05-11 05:22:00,63.0,57.0,30.01,North,5,4.0,9.0,80,0.00,,,0.01,,2013-05-11 10:22:00,
2013-05-11 05:33:00,62.0,56.0,30.01,North,358,2.0,6.0,81,0.00,,,0.01,,2013-05-11 10:33:00,
2013-05-11 05:42:00,62.0,56.0,30.01,North,358,2.0,6.0,81,0.00,,,0.01,,2013-05-11 10:42:00,
2013-05-11 05:52:00,62.0,56.0,30.01,North,358,2.0,6.0,81,0.00,,,0.01,,2013-05-11 10:52:00,
2013-05-11 06:02:00,61.0,55.0,30.02,North,356,2.0,5.0,82,0.00,,,0.01,,2013-05-11 11:02:00,
2013-05-11 06:11:00,61.0,55.0,30.02,North,356,2.0,5.0,82,0.00,,,0.01,,2013-05-11 11:11:00,
2013-05-11 06:21:00,61.0,55.0,30.02,North,356,2.0,5.0,82,0.00,,,0.01,,2013-05-11 11:21:00,
2013-05-11 06:32:00,61.0,55.0,30.05,WNW,289,2.0,3.0,82,0.00,,,0.01,,2013-05-11 11:32:00,
2013-05-11 06:42:00,61.0,55.0,30.05,WNW,289,2.0,3.0,82,0.00,,,0.01,,2013-05-11 11:42:00,
2013-05-11 06:52:00,61.0,55.0,30.05,WNW,289,2.0,3.0,82,0.00,,,0.01,,2013-05-11 11:52:00,
2013-05-11 07:01:00,60.0,54.0,30.06,NW,315,2.0,3.0,81,0.00,,,0.00,,2013-05-11 12:01:00,
2013-05-11 07:11:00,60.0,54.0,30.06,NW,315,2.0,3.0,81,0.00,,,0.00,,2013-05-11 12:11:00,
2013-05-11 07:22:00,60.0,54.0,30.06,NW,315,2.0,3.0,81,0.00,,,0.00,,2013-05-11 12:22:00,
2013-05-11 07:32:00,61.0,55.0,30.06,NNW,333,3.0,7.0,82,0.00,,,0.00,,2013-05-11 12:32:00,
2013-05-11 07:42:00,63.0,56.0,30.06,NW,323,5.0,12.0,78,0.00,,,0.00,,2013-05-11 12:42:00,
2013-05-11 07:52:00,63.0,56.0,30.06,NW,323,5.0,12.0,78,0.00,,,0.00,,2013-05-11 12:52:00,
2013-05-11 08:01:00,63.0,56.0,30.06,NW,323,5.0,12.0,78,0.00,,,0.00,,2013-05-11 13:01:00,
2013-05-11 08:11:00,63.0,56.0,30.06,NW,323,5.0,12.0,78,0.00,,,0.00,,2013-05-11 13:11:00,
2013-05-11 08:21:00,63.0,56.0,30.06,NW,323,5.0,12.0,78,0.00,,,0.00,,2013-05-11 13:21:00,
2013-05-11 08:32:00,64.0,56.0,30.07,NNW,343,4.0,8.0,76,0.00,,,0.00,,2013-05-11 13:32:00,
2013-05-11 08:42:00,64.0,56.0,30.07,NNW,343,4.0,8.0,76,0.00,,,0.00,,2013-05-11 13:42:00,
2013-05-11 08:52:00,64.0,56.0,30.07,NNW,343,4.0,8.0,76,0.00,,,0.00,,2013-05-11 13:52:00,
2013-05-11 09:02:00,66.0,56.0,30.07,NNE,14,6.0,10.0,71,0.00,,,0.00,,2013-05-11 14:02:00,
2013-05-11 09:11:00,66.0,56.0,30.07,NNE,14,6.0,10.0,71,0.00,,,0.00,,2013-05-11 14:11:00,
2013-05-11 09:21:00,66.0,55.0,30.08,North,354,6.0,12.0,67,0.00,,,0.00,,2013-05-11 14:21:00,
2013-05-11 09:32:00,68.0,56.0,30.08,North,354,6.0,12.0,66,0.00,,,0.00,,2013-05-11 14:32:00,
2013-05-11 09:41:00,68.0,55.0,30.07,North,357,8.0,12.0,63,0.00,,,0.00,,2013-05-11 14:41:00,
2013-05-11 09:51:00,68.0,55.0,30.07,North,357,8.0,12.0,63,0.00,,,0.00,,2013-05-11 14:51:00,
2013-05-11 10:01:00,68.0,55.0,30.07,North,357,8.0,12.0,63,0.00,,,0.00,,2013-05-11 15:01:00,
2013-05-11 10:11:00,70.0,55.0,30.07,North,0,6.0,12.0,60,0.00,,,0.00,,2013-05-11 15:11:00,
2013-05-11 10:21:00,70.0,55.0,30.07,North,0,6.0,12.0,60,0.00,,,0.00,,2013-05-11 15:21:00,
2013-05-11 10:32:00,70.0,55.0,30.07,North,0,6.0,12.0,60,0.00,,,0.00,,2013-05-11 15:32:00,
2013-05-11 10:43:00,70.0,55.0,30.07,North,0,6.0,12.0,60,0.00,,,0.00,,2013-05-11 15:43:00,
2013-05-11 10:53:00,70.0,55.0,30.07,North,0,6.0,12.0,60,0.00,,,0.00,,2013-05-11 15:53:00,
2013-05-11 11:23:00,71.0,54.0,30.07,NNW,327,6.0,14.0,55,0.00,,,0.00,,2013-05-11 16:23:00,
2013-05-11 11:33:00,71.0,54.0,30.07,NNW,327,6.0,14.0,55,0.00,,,0.00,,2013-05-11 16:33:00,
2013-05-11 11:42:00,71.0,54.0,30.07,NNW,327,6.0,14.0,55,0.00,,,0.00,,2013-05-11 16:42:00,
2013-05-11 11:52:00,71.0,54.0,30.07,NNW,327,6.0,14.0,55,0.00,,,0.00,,2013-05-11 16:52:00,
2013-05-11 12:22:00,74.0,54.0,30.08,North,6,10.0,17.0,50,0.00,,,0.00,,2013-05-11 17:22:00,
2013-05-11 12:32:00,74.0,53.0,30.08,North,0,8.0,17.0,48,0.00,,,0.00,,2013-05-11 17:32:00,
2013-05-11 12:42:00,74.0,51.0,30.08,NNE,20,7.0,20.0,45,0.00,,,0.00,,2013-05-11 17:42:00,
2013-05-11 12:52:00,74.0,51.0,30.08,NNE,20,7.0,20.0,45,0.00,,,0.00,,2013-05-11 17:52:00,
2013-05-11 13:01:00,74.0,51.0,30.08,NNE,18,9.0,16.0,45,0.00,,,0.00,,2013-05-11 18:01:00,
2013-05-11 13:11:00,74.0,51.0,30.08,NNE,18,9.0,16.0,45,0.00,,,0.00,,2013-05-11 18:11:00,
2013-05-11 13:21:00,74.0,51.0,30.08,NNE,18,9.0,16.0,45,0.00,,,0.00,,2013-05-11 18:21:00,
2013-05-11 13:32:00,75.0,52.0,30.08,NNW,344,6.0,10.0,44,0.00,,,0.00,,2013-05-11 18:32:00,
2013-05-11 13:42:00,76.0,53.0,30.08,NNE,14,7.0,14.0,45,0.00,,,0.00,,2013-05-11 18:42:00,
2013-05-11 13:52:00,76.0,53.0,30.08,NNE,14,7.0,14.0,45,0.00,,,0.00,,2013-05-11 18:52:00,
2013-05-11 14:02:00,76.0,50.0,30.08,NE,48,7.0,18.0,40,0.00,,,0.00,,2013-05-11 19:02:00,
2013-05-11 14:11:00,76.0,50.0,30.08,NE,48,7.0,18.0,40,0.00,,,0.00,,2013-05-11 19:11:00,
2013-05-11 14:21:00,76.0,49.0,30.07,North,9,5.0,14.0,38,0.00,,,0.00,,2013-05-11 19:21:00,
2013-05-11 14:32:00,77.0,50.0,30.07,NNE,17,7.0,12.0,39,0.00,,,0.00,,2013-05-11 19:32:00,
2013-05-11 14:42:00,77.0,49.0,30.07,NNE,21,7.0,14.0,38,0.00,,,0.00,,2013-05-11 19:42:00,
2013-05-11 14:52:00,77.0,49.0,30.07,NNE,21,7.0,14.0,38,0.00,,,0.00,,2013-05-11 19:52:00,
2013-05-11 15:02:00,77.0,51.0,30.07,NW,320,5.0,15.0,40,0.00,,,0.00,,2013-05-11 20:02:00,
2013-05-11 15:12:00,77.0,51.0,30.07,NW,320,5.0,15.0,40,0.00,,,0.00,,2013-05-11 20:12:00,
2013-05-11 15:22:00,78.0,50.0,30.07,NE,47,7.0,14.0,37,0.00,,,0.00,,2013-05-11 20:22:00,
2013-05-11 15:32:00,78.0,50.0,30.07,NE,47,7.0,14.0,37,0.00,,,0.00,,2013-05-11 20:32:00,
2013-05-11 15:42:00,78.0,49.0,30.06,North,355,9.0,15.0,36,0.00,,,0.00,,2013-05-11 20:42:00,
2013-05-11 15:52:00,78.0,49.0,30.06,North,355,9.0,15.0,36,0.00,,,0.00,,2013-05-11 20:52:00,
2013-05-11 16:02:00,78.0,49.0,30.06,North,355,9.0,15.0,36,0.00,,,0.00,,2013-05-11 21:02:00,
2013-05-11 16:11:00,78.0,49.0,30.06,North,355,9.0,15.0,36,0.00,,,0.00,,2013-05-11 21:11:00,
2013-05-11 16:21:00,78.0,52.0,30.04,NNW,341,8.0,14.0,40,0.00,,,0.00,,2013-05-11 21:21:00,
2013-05-11 16:33:00,79.0,50.0,30.04,North,8,6.0,16.0,37,0.00,,,0.00,,2013-05-11 21:33:00,
2013-05-11 16:43:00,79.0,50.0,30.04,North,8,6.0,16.0,37,0.00,,,0.00,,2013-05-11 21:43:00,
2013-05-11 16:52:00,79.0,50.0,30.04,North,8,6.0,16.0,37,0.00,,,0.00,,2013-05-11 21:52:00,
2013-05-11 17:02:00,79.0,50.0,30.04,NNE,12,10.0,15.0,37,0.00,,,0.00,,2013-05-11 22:02:00,
2013-05-11 17:13:00,79.0,50.0,30.04,NNE,12,10.0,15.0,37,0.00,,,0.00,,2013-05-11 22:13:00,
2013-05-11 17:23:00,79.0,50.0,30.04,North,351,7.0,16.0,36,0.00,,,0.00,,2013-05-11 22:23:00,
2013-05-11 17:33:00,78.0,50.0,30.04,North,5,5.0,15.0,37,0.00,,,0.00,,2013-05-11 22:33:00,
2013-05-11 17:42:00,78.0,50.0,30.04,North,5,5.0,15.0,37,0.00,,,0.00,,2013-05-11 22:42:00,
2013-05-11 17:52:00,79.0,50.0,30.04,North,11,8.0,13.0,36,0.00,,,0.00,,2013-05-11 22:52:00,
2013-05-11 18:02:00,79.0,50.0,30.03,North,6,6.0,10.0,37,0.00,,,0.00,,2013-05-11 23:02:00,
2013-05-11 18:12:00,79.0,50.0,30.03,North,6,6.0,10.0,37,0.00,,,0.00,,2013-05-11 23:12:00,
2013-05-11 18:22:00,79.0,50.0,30.03,North,10,7.0,12.0,36,0.00,,,0.00,,2013-05-11 23:22:00,
2013-05-11 18:32:00,78.0,48.0,30.03,North,359,5.0,13.0,35,0.00,,,0.00,,2013-05-11 23:32:00,
2013-05-11 18:42:00,78.0,49.0,30.03,NNE,18,7.0,12.0,36,0.00,,,0.00,,2013-05-11 23:42:00,
2013-05-11 18:52:00,78.0,49.0,30.03,NNE,18,7.0,12.0,36,0.00,,,0.00,,2013-05-11 23:52:00,
2013-05-11 19:01:00,78.0,49.0,30.03,North,2,7.0,15.0,36,0.00,,,0.00,,2013-05-12 00:01:00,
2013-05-11 19:11:00,78.0,49.0,30.03,North,2,7.0,15.0,36,0.00,,,0.00,,2013-05-12 00:11:00,
2013-05-11 19:21:00,77.0,48.0,30.03,North,9,6.0,13.0,36,0.00,,,0.00,,2013-05-12 00:21:00,
2013-05-11 19:32:00,76.0,48.0,30.03,North,6,4.0,9.0,37,0.00,,,0.00,,2013-05-12 00:32:00,
2013-05-11 19:42:00,76.0,48.0,30.04,NNE,26,4.0,8.0,37,0.00,,,0.00,,2013-05-12 00:42:00,
2013-05-11 19:52:00,76.0,48.0,30.04,NNE,26,4.0,8.0,37,0.00,,,0.00,,2013-05-12 00:52:00,
2013-05-11 20:01:00,74.0,49.0,30.05,North,357,2.0,3.0,41,0.00,,,0.00,,2013-05-12 01:01:00,
2013-05-11 20:11:00,74.0,49.0,30.05,North,357,2.0,3.0,41,0.00,,,0.00,,2013-05-12 01:11:00,
2013-05-11 20:21:00,73.0,50.0,30.05,NNE,14,1.0,3.0,44,0.00,,,0.00,,2013-05-12 01:21:00,
2013-05-11 20:32:00,72.0,49.0,30.06,North,355,1.0,3.0,44,0.00,,,0.00,,2013-05-12 01:32:00,
2013-05-11 20:41:00,72.0,49.0,30.06,North,355,0.0,2.0,45,0.00,,,0.00,,2013-05-12 01:41:00,
2013-05-11 20:52:00,72.0,49.0,30.06,North,355,0.0,2.0,45,0.00,,,0.00,,2013-05-12 01:52:00,
2013-05-11 21:01:00,71.0,49.0,30.06,North,355,0.0,0.0,46,0.00,,,0.00,,2013-05-12 02:01:00,
2013-05-11 21:11:00,71.0,49.0,30.06,North,355,0.0,0.0,46,0.00,,,0.00,,2013-05-12 02:11:00,
2013-05-11 21:22:00,70.0,50.0,30.07,North,355,0.0,0.0,49,0.00,,,0.00,,2013-05-12 02:22:00,
2013-05-11 21:32:00,70.0,50.0,30.07,North,355,0.0,0.0,49,0.00,,,0.00,,2013-05-12 02:32:00,
2013-05-11 21:42:00,70.0,50.0,30.07,North,355,0.0,0.0,49,0.00,,,0.00,,2013-05-12 02:42:00,
2013-05-11 21:52:00,70.0,50.0,30.07,North,355,0.0,0.0,49,0.00,,,0.00,,2013-05-12 02:52:00,
2013-05-11 22:01:00,70.0,50.0,30.07,North,355,0.0,0.0,49,0.00,,,0.00,,2013-05-12 03:01:00,
2013-05-11 22:11:00,69.0,49.0,30.09,North,355,0.0,0.0,49,0.00,,,0.00,,2013-05-12 03:11:00,
2013-05-11 22:22:00,69.0,49.0,30.09,North,355,0.0,0.0,49,0.00,,,0.00,,2013-05-12 03:22:00,
2013-05-11 22:33:00,69.0,50.0,30.09,North,355,0.0,0.0,50,0.00,,,0.00,,2013-05-12 03:33:00,
2013-05-11 22:43:00,69.0,50.0,30.09,North,355,0.0,0.0,50,0.00,,,0.00,,2013-05-12 03:43:00,
2013-05-11 22:53:00,69.0,50.0,30.09,North,355,0.0,0.0,50,0.00,,,0.00,,2013-05-12 03:53:00,
2013-05-11 23:02:00,-999.0,-99.9,30.10,North,355,0.0,0.0,65,0.00,,,0.00,,2013-05-12 04:02:00,
2013-05-11 23:12:00,65.0,53.0,30.10,North,355,0.0,0.0,65,0.00,,,0.00,,2013-05-12 04:12:00,
2013-05-11 23:22:00,65.0,51.0,30.11,North,355,0.0,0.0,60,0.00,,,0.00,,2013-05-12 04:22:00,
2013-05-11 23:33:00,67.0,52.0,30.11,North,355,0.0,0.0,58,0.00,,,0.00,,2013-05-12 04:33:00,
2013-05-11 23:43:00,66.0,51.0,30.12,North,350,2.0,3.0,59,0.00,,,0.00,,2013-05-12 04:43:00,
2013-05-11 23:52:00,66.0,51.0,30.12,North,350,2.0,3.0,59,0.00,,,0.00,,2013-05-12 04:52:00,